createdAt,value
2023-02-16T00:00:20.644Z,2.00
2023-02-16T00:02:48.701Z,1.90
2023-02-16T00:05:34.217Z,1.70
2023-02-16T00:08:02.118Z,1.70
2023-02-16T00:10:35.455Z,1.90
2023-02-16T00:13:30.239Z,2.20
2023-02-16T00:15:57.675Z,2.10
2023-02-16T00:18:25.009Z,2.20
2023-02-16T00:20:52.376Z,2.10
2023-02-16T00:23:19.737Z,2.10
2023-02-16T00:25:47.246Z,2.00
2023-02-16T00:28:20.570Z,2.00
2023-02-16T00:30:50.158Z,1.90
2023-02-16T00:33:20.875Z,1.80
2023-02-16T00:35:48.839Z,1.90
2023-02-16T00:38:17.025Z,1.90
2023-02-16T00:40:44.560Z,2.00
2023-02-16T00:43:27.895Z,2.00
2023-02-16T00:45:56.430Z,2.00
2023-02-16T00:48:25.006Z,2.00
2023-02-16T00:50:53.979Z,1.90
2023-02-16T00:53:21.287Z,2.00
2023-02-16T00:55:48.657Z,1.90
2023-02-16T00:58:18.729Z,1.80
2023-02-16T01:01:16.619Z,1.60
2023-02-16T01:03:47.085Z,1.60
2023-02-16T01:06:32.668Z,1.50
2023-02-16T01:09:30.669Z,1.60
2023-02-16T01:11:58.518Z,1.70
2023-02-16T01:14:26.413Z,1.60
2023-02-16T01:16:53.812Z,1.60
2023-02-16T01:19:21.213Z,1.50
2023-02-16T01:21:48.622Z,1.60
2023-02-16T01:24:16.229Z,1.60
2023-02-16T01:26:48.553Z,1.50
2023-02-16T01:29:18.414Z,1.30
2023-02-16T01:31:46.362Z,1.20
2023-02-16T01:34:14.379Z,1.00
2023-02-16T01:36:46.795Z,0.90
2023-02-16T01:39:18.865Z,0.90
2023-02-16T01:42:13.119Z,1.00
2023-02-16T01:44:49.690Z,1.10
2023-02-16T01:47:35.581Z,1.00
2023-02-16T01:50:19.453Z,1.00
2023-02-16T01:53:15.951Z,1.00
2023-02-16T01:55:46.972Z,1.10
2023-02-16T01:58:40.929Z,1.10
2023-02-16T02:01:35.683Z,1.10
2023-02-16T02:04:34.821Z,1.10
2023-02-16T02:07:02.116Z,1.00
2023-02-16T02:09:40.566Z,1.00
2023-02-16T02:12:29.884Z,1.00
2023-02-16T02:14:57.320Z,1.00
2023-02-16T02:17:25.693Z,1.10
2023-02-16T02:19:56.017Z,1.10
2023-02-16T02:23:30.380Z,1.20
2023-02-16T02:26:16.158Z,1.20
2023-02-16T02:28:54.938Z,1.20
2023-02-16T02:31:41.697Z,1.20
2023-02-16T02:34:15.067Z,1.20
2023-02-16T02:36:50.715Z,1.30
2023-02-16T02:39:27.501Z,1.40
2023-02-16T02:42:05.865Z,1.30
2023-02-16T02:44:49.081Z,1.20
2023-02-16T02:47:16.779Z,1.20
2023-02-16T02:49:54.842Z,1.20
2023-02-16T02:52:22.692Z,1.20
2023-02-16T02:55:09.381Z,1.20
2023-02-16T02:58:06.412Z,1.20
2023-02-16T03:00:41.880Z,1.20
2023-02-16T03:03:15.588Z,1.20
2023-02-16T03:05:47.964Z,1.20
2023-02-16T03:08:18.862Z,1.40
2023-02-16T03:11:09.194Z,1.50
2023-02-16T03:13:39.710Z,1.30
2023-02-16T03:16:21.642Z,1.30
2023-02-16T03:19:07.434Z,1.40
2023-02-16T03:21:54.094Z,1.50
2023-02-16T03:24:46.123Z,1.50
2023-02-16T03:27:40.085Z,1.50
2023-02-16T03:30:10.095Z,1.50
2023-02-16T03:32:39.008Z,1.30
2023-02-16T03:35:07.041Z,1.40
2023-02-16T03:37:34.841Z,1.30
2023-02-16T03:40:21.123Z,1.30
2023-02-16T03:42:50.204Z,1.30
2023-02-16T03:45:21.203Z,1.30
2023-02-16T03:47:48.479Z,1.30
2023-02-16T03:50:16.132Z,1.20
2023-02-16T03:52:43.567Z,1.10
2023-02-16T03:55:10.888Z,1.00
2023-02-16T03:57:38.132Z,1.00
2023-02-16T04:00:06.039Z,1.10
2023-02-16T04:02:40.388Z,1.20
2023-02-16T04:05:07.871Z,1.30
2023-02-16T04:07:35.159Z,1.40
2023-02-16T04:10:02.469Z,1.30
2023-02-16T04:12:38.636Z,1.40
2023-02-16T04:15:12.750Z,1.20
2023-02-16T04:17:40.683Z,1.30
2023-02-16T04:20:11.124Z,1.30
2023-02-16T04:22:38.539Z,1.20
2023-02-16T04:25:06.445Z,1.20
2023-02-16T04:27:33.927Z,1.30
2023-02-16T04:30:01.331Z,1.20
2023-02-16T04:32:28.641Z,1.20
2023-02-16T04:34:55.911Z,1.20
2023-02-16T04:37:23.228Z,1.30
2023-02-16T04:39:50.540Z,1.20
2023-02-16T04:42:17.862Z,1.20
2023-02-16T04:44:45.298Z,1.10
2023-02-16T04:47:12.578Z,1.30
2023-02-16T04:49:39.853Z,1.30
2023-02-16T04:52:07.195Z,1.30
2023-02-16T04:54:34.514Z,1.40
2023-02-16T04:57:01.877Z,1.30
2023-02-16T04:59:29.189Z,1.40
2023-02-16T05:01:57.399Z,1.20
2023-02-16T05:04:26.431Z,1.30
2023-02-16T05:06:53.732Z,1.20
2023-02-16T05:09:21.022Z,1.20
2023-02-16T05:12:06.735Z,1.20
2023-02-16T05:14:41.906Z,1.20
2023-02-16T05:17:14.830Z,1.20
2023-02-16T05:19:43.897Z,1.30
2023-02-16T05:22:11.579Z,1.40
2023-02-16T05:24:39.174Z,1.50
2023-02-16T05:27:11.173Z,1.60
2023-02-16T05:29:38.482Z,1.70
2023-02-16T05:32:06.352Z,1.70
2023-02-16T05:34:33.651Z,1.80
2023-02-16T05:37:01.091Z,1.90
2023-02-16T05:39:28.610Z,2.00
2023-02-16T05:41:55.938Z,2.00
2023-02-16T05:44:23.360Z,1.90
2023-02-16T05:46:50.710Z,1.90
2023-02-16T05:49:18.174Z,1.70
2023-02-16T05:51:45.649Z,1.70
2023-02-16T05:54:17.442Z,1.70
2023-02-16T05:56:50.091Z,1.80
2023-02-16T05:59:17.594Z,1.80
2023-02-16T06:01:50.513Z,1.80
2023-02-16T06:04:19.768Z,1.90
2023-02-16T06:06:47.373Z,1.90
2023-02-16T06:09:14.935Z,1.90
2023-02-16T06:11:43.032Z,1.90
2023-02-16T06:14:18.464Z,1.90
2023-02-16T06:16:48.158Z,2.00
2023-02-16T06:19:17.144Z,2.00
2023-02-16T06:21:44.805Z,2.00
2023-02-16T06:24:13.358Z,2.00
2023-02-16T06:26:41.677Z,2.10
2023-02-16T06:29:09.773Z,2.10
2023-02-16T06:31:37.509Z,2.10
2023-02-16T06:34:05.680Z,2.20
2023-02-16T06:36:33.954Z,2.30
2023-02-16T06:39:01.350Z,2.30
2023-02-16T06:41:32.001Z,2.40
2023-02-16T06:44:00.656Z,2.40
2023-02-16T06:46:28.419Z,2.40
2023-02-16T06:48:56.061Z,2.40
2023-02-16T06:51:23.770Z,2.50
2023-02-16T06:53:51.421Z,2.50
2023-02-16T06:56:18.840Z,2.60
2023-02-16T06:58:46.037Z,2.70
2023-02-16T07:01:13.499Z,2.70
2023-02-16T07:03:41.059Z,2.80
2023-02-16T07:06:08.435Z,2.80
2023-02-16T07:08:36.037Z,2.80
2023-02-16T07:11:04.184Z,2.90
2023-02-16T07:13:31.778Z,2.90
2023-02-16T07:15:59.212Z,2.90
2023-02-16T07:18:26.584Z,3.00
2023-02-16T07:20:54.159Z,2.90
2023-02-16T07:23:21.596Z,2.90
2023-02-16T07:25:48.881Z,2.90
2023-02-16T07:28:16.518Z,2.90
2023-02-16T07:30:44.391Z,2.90
2023-02-16T07:33:11.641Z,3.10
2023-02-16T07:35:38.926Z,3.20
2023-02-16T07:38:06.703Z,3.30
2023-02-16T07:40:34.271Z,3.40
2023-02-16T07:43:04.006Z,3.50
2023-02-16T07:45:35.039Z,3.60
2023-02-16T07:48:02.924Z,3.70
2023-02-16T07:50:30.134Z,3.80
2023-02-16T07:52:57.405Z,4.00
2023-02-16T07:55:24.708Z,4.20
2023-02-16T07:57:55.347Z,4.30
2023-02-16T08:00:23.065Z,4.40
2023-02-16T08:02:50.436Z,4.60
2023-02-16T08:05:18.196Z,4.70
2023-02-16T08:07:46.708Z,4.80
2023-02-16T08:10:15.594Z,4.90
2023-02-16T08:12:43.382Z,4.90
2023-02-16T08:15:12.010Z,4.80
2023-02-16T08:17:39.537Z,4.80
2023-02-16T08:20:07.894Z,5.00
2023-02-16T08:22:35.918Z,5.30
2023-02-16T08:25:06.880Z,6.00
2023-02-16T08:27:35.712Z,6.30
2023-02-16T08:30:03.684Z,6.80
2023-02-16T08:32:31.178Z,7.10
2023-02-16T08:34:58.577Z,6.90
2023-02-16T08:37:26.137Z,7.10
2023-02-16T08:39:53.785Z,6.90
2023-02-16T08:42:21.287Z,6.90
2023-02-16T08:44:48.684Z,6.70
2023-02-16T08:47:18.346Z,6.50
2023-02-16T08:49:46.010Z,6.50
2023-02-16T08:52:13.883Z,6.60
2023-02-16T08:54:41.472Z,6.70
2023-02-16T08:57:09.321Z,6.90
2023-02-16T08:59:36.893Z,7.40
2023-02-16T09:02:04.703Z,7.70
2023-02-16T09:04:32.250Z,8.20
2023-02-16T09:06:59.989Z,8.10
2023-02-16T09:09:27.801Z,7.70
2023-02-16T09:11:55.314Z,7.30
2023-02-16T09:14:23.317Z,7.20
2023-02-16T09:16:51.314Z,7.10
2023-02-16T09:19:21.047Z,7.10
2023-02-16T09:21:50.606Z,6.90
2023-02-16T09:24:18.090Z,7.00
2023-02-16T09:26:45.650Z,7.10
2023-02-16T09:29:13.869Z,7.20
2023-02-16T09:31:42.472Z,7.20
2023-02-16T09:34:22.136Z,7.20
2023-02-16T09:36:50.533Z,7.20
2023-02-16T09:39:18.673Z,7.20
2023-02-16T09:42:04.937Z,7.20
2023-02-16T09:44:50.910Z,7.20
2023-02-16T09:47:24.079Z,7.20
2023-02-16T09:49:53.961Z,7.30
2023-02-16T09:52:36.009Z,7.30
2023-02-16T09:55:17.084Z,7.30
2023-02-16T09:57:55.971Z,7.20
2023-02-16T10:00:33.363Z,7.10
2023-02-16T10:03:20.864Z,7.10
2023-02-16T10:06:14.592Z,7.10
2023-02-16T10:08:46.873Z,7.20
2023-02-16T10:11:41.889Z,7.20
2023-02-16T10:14:30.995Z,7.30
2023-02-16T10:17:11.239Z,7.40
2023-02-16T10:19:48.909Z,7.40
2023-02-16T10:22:24.315Z,7.60
2023-02-16T10:25:14.567Z,7.70
2023-02-16T10:27:45.730Z,7.90
2023-02-16T10:30:19.101Z,7.90
2023-02-16T10:33:10.563Z,8.00
2023-02-16T10:35:49.169Z,8.20
2023-02-16T10:38:24.491Z,8.60
2023-02-16T10:41:00.836Z,8.70
2023-02-16T10:43:53.071Z,9.00
2023-02-16T10:46:26.542Z,9.10
2023-02-16T10:48:55.064Z,9.30
2023-02-16T10:51:28.189Z,9.40
2023-02-16T10:54:01.832Z,9.60
2023-02-16T10:56:49.680Z,9.70
2023-02-16T10:59:38.073Z,9.80
2023-02-16T11:02:41.666Z,10.00
2023-02-16T11:05:31.200Z,10.00
2023-02-16T11:08:03.306Z,10.20
2023-02-16T11:10:38.902Z,10.40
2023-02-16T11:13:07.919Z,10.80
2023-02-16T11:15:38.830Z,10.80
2023-02-16T11:18:36.281Z,10.80
2023-02-16T11:21:04.656Z,10.70
2023-02-16T11:23:40.973Z,10.40
2023-02-16T11:26:24.116Z,10.30
2023-02-16T11:28:51.923Z,10.10
2023-02-16T11:31:32.822Z,9.90
2023-02-16T11:34:27.844Z,9.90
2023-02-16T11:37:14.255Z,9.90
2023-02-16T11:39:49.584Z,9.90
2023-02-16T11:42:34.875Z,10.00
2023-02-16T11:45:04.913Z,9.90
2023-02-16T11:47:38.590Z,9.80
2023-02-16T11:50:20.828Z,9.90
2023-02-16T11:52:50.616Z,10.00
2023-02-16T11:55:34.182Z,10.20
2023-02-16T11:58:27.525Z,10.50
2023-02-16T12:01:12.985Z,10.60
2023-02-16T12:04:05.599Z,10.70
2023-02-16T12:06:48.001Z,11.00
2023-02-16T12:09:36.759Z,11.20
2023-02-16T12:12:20.974Z,10.90
2023-02-16T12:14:57.472Z,10.80
2023-02-16T12:17:49.336Z,10.40
2023-02-16T12:20:58.923Z,10.60
2023-02-16T12:23:44.951Z,10.50
2023-02-16T12:26:34.395Z,10.50
2023-02-16T12:29:21.062Z,10.50
2023-02-16T12:32:00.853Z,10.40
2023-02-16T12:34:54.028Z,10.50
2023-02-16T12:37:26.811Z,10.50
2023-02-16T12:40:28.783Z,10.40
2023-02-16T12:43:27.726Z,10.20
2023-02-16T12:45:57.939Z,10.30
2023-02-16T12:48:51.268Z,10.30
2023-02-16T12:51:29.342Z,10.40
2023-02-16T12:54:10.719Z,10.60
2023-02-16T12:57:06.255Z,11.00
2023-02-16T12:59:48.722Z,11.40
2023-02-16T13:02:42.509Z,11.70
2023-02-16T13:05:12.050Z,11.90
2023-02-16T13:07:43.016Z,11.90
2023-02-16T13:10:36.016Z,12.10
2023-02-16T13:13:11.935Z,11.80
2023-02-16T13:15:40.533Z,11.40
2023-02-16T13:18:24.352Z,11.00
2023-02-16T13:21:10.913Z,10.90
2023-02-16T13:23:50.582Z,10.70
2023-02-16T13:26:31.141Z,10.60
2023-02-16T13:29:36.057Z,10.50
2023-02-16T13:32:33.209Z,10.30
2023-02-16T13:35:35.005Z,10.20
2023-02-16T13:38:37.405Z,10.10
2023-02-16T13:41:29.506Z,10.60
2023-02-16T13:44:18.510Z,11.30
2023-02-16T13:46:52.426Z,11.70
2023-02-16T13:49:42.876Z,11.80
2023-02-16T13:52:27.444Z,11.50
2023-02-16T13:54:54.978Z,11.40
2023-02-16T13:57:51.456Z,11.10
2023-02-16T14:00:35.494Z,10.90
2023-02-16T14:03:05.692Z,10.80
2023-02-16T14:05:36.553Z,10.90
2023-02-16T14:08:16.735Z,10.90
2023-02-16T14:10:53.422Z,11.00
2023-02-16T14:13:29.168Z,11.00
2023-02-16T14:16:02.023Z,10.90
2023-02-16T14:18:46.906Z,10.80
2023-02-16T14:21:42.814Z,10.70
2023-02-16T14:24:25.089Z,10.70
2023-02-16T14:27:01.338Z,10.70
2023-02-16T14:29:51.805Z,10.70
2023-02-16T14:32:19.042Z,10.80
2023-02-16T14:35:03.558Z,10.70
2023-02-16T14:37:36.681Z,10.80
2023-02-16T14:40:39.903Z,10.90
2023-02-16T14:43:30.709Z,11.00
2023-02-16T14:46:29.145Z,11.10
2023-02-16T14:49:30.589Z,11.10
2023-02-16T14:52:12.983Z,11.10
2023-02-16T14:55:07.521Z,11.10
2023-02-16T14:57:57.619Z,11.10
2023-02-16T15:00:46.508Z,11.10
2023-02-16T15:03:18.752Z,11.00
2023-02-16T15:05:56.191Z,10.90
2023-02-16T15:08:34.701Z,11.00
2023-02-16T15:11:20.678Z,11.00
2023-02-16T15:13:52.432Z,10.90
2023-02-16T15:16:22.688Z,11.00
2023-02-16T15:18:53.567Z,11.00
2023-02-16T15:21:30.708Z,11.00
2023-02-16T15:24:00.570Z,10.80
2023-02-16T15:26:33.756Z,10.90
2023-02-16T15:29:16.561Z,11.00
2023-02-16T15:31:44.223Z,11.10
2023-02-16T15:34:15.142Z,11.30
2023-02-16T15:36:44.619Z,11.40
2023-02-16T15:39:38.518Z,11.40
2023-02-16T15:42:29.593Z,11.30
2023-02-16T15:44:57.009Z,11.30
2023-02-16T15:47:26.407Z,11.30
2023-02-16T15:49:54.999Z,11.20
2023-02-16T15:52:37.808Z,11.20
2023-02-16T15:55:09.107Z,11.20
2023-02-16T15:57:38.332Z,11.20
2023-02-16T16:00:20.946Z,11.20
2023-02-16T16:02:54.460Z,11.30
2023-02-16T16:05:25.073Z,11.30
2023-02-16T16:07:53.649Z,11.30
2023-02-16T16:10:40.970Z,11.40
2023-02-16T16:13:29.741Z,11.30
2023-02-16T16:16:04.549Z,11.30
2023-02-16T16:18:39.517Z,11.30
2023-02-16T16:21:21.434Z,11.30
2023-02-16T16:24:04.239Z,11.30
2023-02-16T16:26:49.435Z,11.20
2023-02-16T16:29:41.274Z,11.10
2023-02-16T16:32:20.107Z,10.90
2023-02-16T16:34:48.136Z,10.90
2023-02-16T16:37:36.720Z,10.90
2023-02-16T16:40:19.746Z,10.80
2023-02-16T16:43:02.462Z,10.80
2023-02-16T16:45:40.798Z,10.70
2023-02-16T16:48:13.862Z,10.60
2023-02-16T16:50:42.379Z,10.60
2023-02-16T16:53:31.647Z,10.70
2023-02-16T16:56:01.203Z,10.70
2023-02-16T16:58:29.363Z,10.70
2023-02-16T17:00:56.636Z,10.70
2023-02-16T17:03:24.041Z,10.80
2023-02-16T17:05:51.429Z,10.70
2023-02-16T17:08:18.751Z,10.70
2023-02-16T17:10:46.115Z,10.80
2023-02-16T17:13:17.956Z,10.80
2023-02-16T17:15:56.788Z,10.80
2023-02-16T17:18:24.053Z,10.80
2023-02-16T17:20:51.577Z,10.80
2023-02-16T17:23:21.597Z,10.90
2023-02-16T17:25:49.626Z,10.80
2023-02-16T17:28:18.393Z,10.80
2023-02-16T17:30:45.756Z,10.90
2023-02-16T17:33:13.037Z,10.90
2023-02-16T17:35:42.264Z,10.80
2023-02-16T17:38:27.859Z,10.80
2023-02-16T17:40:56.740Z,10.80
2023-02-16T17:43:26.941Z,10.90
2023-02-16T17:45:56.677Z,10.90
2023-02-16T17:48:29.254Z,10.90
2023-02-16T17:50:59.745Z,11.00
2023-02-16T17:53:28.135Z,11.00
2023-02-16T17:55:57.706Z,10.90
2023-02-16T17:58:25.959Z,10.80
2023-02-16T18:00:53.452Z,10.80
2023-02-16T18:03:22.992Z,10.80
2023-02-16T18:05:50.766Z,10.70
2023-02-16T18:08:18.266Z,10.80
2023-02-16T18:10:48.528Z,10.70
2023-02-16T18:13:16.534Z,10.70
2023-02-16T18:15:47.381Z,10.70
2023-02-16T18:18:16.439Z,10.70
2023-02-16T18:20:44.489Z,10.80
2023-02-16T18:23:11.919Z,10.70
2023-02-16T18:25:41.391Z,10.60
2023-02-16T18:28:20.077Z,10.60
2023-02-16T18:30:49.152Z,10.60
2023-02-16T18:33:17.552Z,10.60
2023-02-16T18:35:44.837Z,10.50
2023-02-16T18:38:13.437Z,10.50
2023-02-16T18:40:45.318Z,10.60
2023-02-16T18:43:13.143Z,10.50
2023-02-16T18:45:41.699Z,10.40
2023-02-16T18:48:09.125Z,10.40
2023-02-16T18:50:36.437Z,10.50
2023-02-16T18:53:04.126Z,10.40
2023-02-16T18:55:33.000Z,10.40
2023-02-16T18:58:01.647Z,10.40
2023-02-16T19:00:29.511Z,10.50
2023-02-16T19:02:57.001Z,10.40
2023-02-16T19:05:24.992Z,10.40
2023-02-16T19:07:52.385Z,10.40
2023-02-16T19:10:19.738Z,10.40
2023-02-16T19:12:47.017Z,10.30
2023-02-16T19:15:14.316Z,10.30
2023-02-16T19:17:41.757Z,10.30
2023-02-16T19:20:11.593Z,10.20
2023-02-16T19:22:38.847Z,10.20
2023-02-16T19:25:07.064Z,10.20
2023-02-16T19:27:34.562Z,10.20
2023-02-16T19:30:01.911Z,10.20
2023-02-16T19:32:29.556Z,10.10
2023-02-16T19:34:56.980Z,10.10
2023-02-16T19:37:24.313Z,10.20
2023-02-16T19:39:51.756Z,10.20
2023-02-16T19:42:19.879Z,10.10
2023-02-16T19:44:47.140Z,10.10
2023-02-16T19:47:14.427Z,10.10
2023-02-16T19:49:42.557Z,10.10
2023-02-16T19:52:09.991Z,10.10
2023-02-16T19:54:37.356Z,10.00
2023-02-16T19:57:05.219Z,10.00
2023-02-16T19:59:32.810Z,10.00
2023-02-16T20:02:00.410Z,10.00
2023-02-16T20:04:28.175Z,10.00
2023-02-16T20:06:56.444Z,10.10
2023-02-16T20:09:24.683Z,10.00
2023-02-16T20:11:52.361Z,10.00
2023-02-16T20:14:19.677Z,10.00
2023-02-16T20:16:49.442Z,10.00
2023-02-16T20:19:16.824Z,10.10
2023-02-16T20:21:46.235Z,10.10
2023-02-16T20:24:14.857Z,10.10
2023-02-16T20:26:45.041Z,10.10
2023-02-16T20:29:14.900Z,10.20
2023-02-16T20:31:52.421Z,10.10
2023-02-16T20:34:20.352Z,10.20
2023-02-16T20:36:47.936Z,10.20
2023-02-16T20:39:15.623Z,10.20
2023-02-16T20:41:43.699Z,10.20
2023-02-16T20:44:12.116Z,10.20
2023-02-16T20:46:40.615Z,10.20
2023-02-16T20:49:09.084Z,10.20
2023-02-16T20:51:37.116Z,10.20
2023-02-16T20:54:05.430Z,10.10
2023-02-16T20:56:33.077Z,10.10
2023-02-16T20:59:01.385Z,10.10
2023-02-16T21:01:33.911Z,10.10
2023-02-16T21:04:01.326Z,10.10
2023-02-16T21:06:29.301Z,10.10
2023-02-16T21:08:56.962Z,10.20
2023-02-16T21:11:25.431Z,10.10
2023-02-16T21:13:53.360Z,10.20
2023-02-16T21:16:20.839Z,10.20
2023-02-16T21:18:48.207Z,10.20
2023-02-16T21:21:15.707Z,10.30
2023-02-16T21:23:45.402Z,10.30
2023-02-16T21:26:13.374Z,10.40
2023-02-16T21:28:41.121Z,10.40
2023-02-16T21:31:12.469Z,10.40
2023-02-16T21:33:40.602Z,10.40
2023-02-16T21:36:11.907Z,10.40
2023-02-16T21:38:40.323Z,10.40
2023-02-16T21:41:26.189Z,10.40
2023-02-16T21:44:02.158Z,10.30
2023-02-16T21:46:35.920Z,10.30
2023-02-16T21:49:07.574Z,10.30
2023-02-16T21:51:37.291Z,10.30
2023-02-16T21:54:09.531Z,10.30
2023-02-16T21:56:45.726Z,10.30
2023-02-16T21:59:15.485Z,10.30
2023-02-16T22:01:50.807Z,10.30
2023-02-16T22:04:22.614Z,10.30
2023-02-16T22:06:51.153Z,10.30
2023-02-16T22:09:21.778Z,10.30
2023-02-16T22:11:50.196Z,10.30
2023-02-16T22:14:18.024Z,10.30
2023-02-16T22:16:47.210Z,10.30
2023-02-16T22:19:16.595Z,10.30
2023-02-16T22:21:45.435Z,10.30
2023-02-16T22:24:14.836Z,10.30
2023-02-16T22:26:42.582Z,10.30
2023-02-16T22:29:10.857Z,10.30
2023-02-16T22:31:39.428Z,10.40
2023-02-16T22:34:11.518Z,10.40
2023-02-16T22:36:40.065Z,10.30
2023-02-16T22:39:07.746Z,10.30
2023-02-16T22:41:35.751Z,10.30
2023-02-16T22:44:03.277Z,10.40
2023-02-16T22:46:30.563Z,10.30
2023-02-16T22:48:59.273Z,10.40
2023-02-16T22:51:29.147Z,10.40
2023-02-16T22:53:59.041Z,10.40
2023-02-16T22:56:26.901Z,10.40
2023-02-16T22:58:57.493Z,10.40
2023-02-16T23:01:26.979Z,10.40
2023-02-16T23:03:57.342Z,10.40
2023-02-16T23:06:31.089Z,10.50
2023-02-16T23:09:01.627Z,10.50
2023-02-16T23:11:29.684Z,10.50
2023-02-16T23:13:57.230Z,10.60
2023-02-16T23:16:26.006Z,10.60
2023-02-16T23:18:55.385Z,10.50
2023-02-16T23:21:28.379Z,10.50
2023-02-16T23:23:56.197Z,10.50
2023-02-16T23:26:25.637Z,10.50
2023-02-16T23:28:54.739Z,10.50
2023-02-16T23:31:23.130Z,10.50
2023-02-16T23:33:50.848Z,10.60
2023-02-16T23:36:18.463Z,10.50
2023-02-16T23:38:45.737Z,10.40
2023-02-16T23:41:14.618Z,10.50
2023-02-16T23:43:42.479Z,10.50
2023-02-16T23:46:11.374Z,10.40
2023-02-16T23:48:38.960Z,10.30
2023-02-16T23:51:06.619Z,10.30
2023-02-16T23:53:34.147Z,10.30
2023-02-16T23:56:08.128Z,10.30
2023-02-16T23:58:41.829Z,10.30
